Time;durP1;ratioP1;P1;durP2;ratioP2;P2;SDS_P1;SDS_P2;PMS_P1;PMS_P2;Temp;Humidity;BMP_temperature;BMP_pressure;BME280_temperature;BME280_humidity;BME280_pressure;Samples;Min_cycle;Max_cycle;Signal;HPM_P1;HPM_P2
2022/08/27 00:01:12;;;;;;;10.53;9.53;;;18.00;99.90;;;;;;485763;244;29370;-69
2022/08/27 00:03:12;;;;;;;8.87;8.07;;;17.90;99.90;;;;;;485756;244;29416;-72
2022/08/27 00:05:13;;;;;;;9.97;9.03;;;17.90;99.90;;;;;;485777;244;28811;-69
2022/08/27 00:07:15;;;;;;;8.87;7.97;;;17.90;99.90;;;;;;485688;244;28855;-71
2022/08/27 00:09:16;;;;;;;8.70;7.90;;;17.90;99.90;;;;;;485746;244;29244;-69
2022/08/27 00:11:17;;;;;;;8.67;7.87;;;18.00;99.90;;;;;;485742;244;28894;-69
2022/08/27 00:13:18;;;;;;;10.47;9.40;;;18.00;99.90;;;;;;485736;244;28958;-73
2022/08/27 00:15:20;;;;;;;8.50;7.70;;;18.00;99.90;;;;;;485735;244;28991;-69
2022/08/27 00:17:21;;;;;;;9.00;7.73;;;18.00;99.90;;;;;;485683;244;28859;-70
2022/08/27 00:19:22;;;;;;;9.00;7.63;;;18.00;99.90;;;;;;485759;244;28828;-69
2022/08/27 00:21:24;;;;;;;7.53;6.93;;;18.00;99.90;;;;;;485756;244;29362;-69
2022/08/27 00:23:25;;;;;;;8.43;7.53;;;18.00;99.90;;;;;;485174;244;29764;-74
2022/08/27 00:25:26;;;;;;;7.37;6.70;;;18.00;99.90;;;;;;485760;244;29274;-69
2022/08/27 00:27:27;;;;;;;8.70;7.90;;;18.00;99.90;;;;;;485723;244;28958;-69
2022/08/27 00:29:29;;;;;;;8.10;7.40;;;17.90;99.90;;;;;;485779;244;28815;-68
2022/08/27 00:31:30;;;;;;;8.50;7.63;;;17.80;99.90;;;;;;485758;244;28872;-69
2022/08/27 00:33:31;;;;;;;9.03;8.13;;;17.90;99.90;;;;;;485773;244;28871;-72
2022/08/27 00:35:32;;;;;;;7.60;7.00;;;17.90;99.90;;;;;;485764;244;28838;-70
2022/08/27 00:37:34;;;;;;;7.80;7.10;;;17.90;99.90;;;;;;485630;244;28859;-70
2022/08/27 00:39:35;;;;;;;7.97;7.27;;;17.90;99.90;;;;;;485758;244;28843;-69
2022/08/27 00:41:36;;;;;;;7.90;7.20;;;17.90;99.90;;;;;;485751;244;28874;-70
2022/08/27 00:43:37;;;;;;;8.33;7.53;;;17.80;99.90;;;;;;485517;245;28975;-72
2022/08/27 00:45:39;;;;;;;9.00;8.10;;;17.80;99.90;;;;;;485757;244;29284;-70
2022/08/27 00:47:40;;;;;;;7.53;6.83;;;17.80;99.90;;;;;;485672;244;29324;-71
2022/08/27 00:49:41;;;;;;;8.20;7.40;;;17.80;99.90;;;;;;485768;244;29271;-69
2022/08/27 00:51:43;;;;;;;9.00;8.10;;;17.80;99.90;;;;;;485784;244;29354;-70
2022/08/27 00:53:44;;;;;;;8.57;7.77;;;17.80;99.90;;;;;;485773;244;28872;-69
2022/08/27 00:55:45;;;;;;;7.53;6.83;;;17.80;99.90;;;;;;485765;244;28826;-70
2022/08/27 00:57:46;;;;;;;8.00;7.23;;;17.80;99.90;;;;;;485698;244;28867;-71
2022/08/27 00:59:47;;;;;;;7.90;7.23;;;17.80;99.90;;;;;;485736;244;28851;-69
2022/08/27 01:04:08;;;;;;;7.40;6.80;;;17.80;99.90;;;;;;485741;245;29451;-71
2022/08/27 01:06:09;;;;;;;8.70;7.67;;;17.80;99.90;;;;;;485614;244;29368;-69
2022/08/27 01:08:11;;;;;;;9.83;7.70;;;17.80;99.90;;;;;;485695;244;29344;-69
2022/08/27 01:10:12;;;;;;;8.20;7.23;;;17.80;99.90;;;;;;485742;244;28906;-69
2022/08/27 01:12:13;;;;;;;8.33;7.53;;;17.80;99.90;;;;;;485722;244;28908;-70
2022/08/27 01:14:14;;;;;;;14.80;8.73;;;17.80;99.90;;;;;;485646;245;28846;-73
2022/08/27 01:16:16;;;;;;;8.87;7.97;;;17.70;99.90;;;;;;485646;244;28931;-69
2022/08/27 01:18:17;;;;;;;8.27;7.47;;;17.70;99.90;;;;;;485737;244;28887;-70
2022/08/27 01:20:18;;;;;;;8.90;8.00;;;17.70;99.90;;;;;;485748;244;28946;-69
2022/08/27 01:22:19;;;;;;;10.13;8.17;;;17.80;99.90;;;;;;485717;244;28881;-69
2022/08/27 01:24:21;;;;;;;7.60;6.90;;;17.80;99.90;;;;;;485737;244;28869;-72
2022/08/27 01:26:22;;;;;;;9.27;8.00;;;17.80;99.90;;;;;;485609;244;29316;-69
2022/08/27 01:28:23;;;;;;;8.90;8.00;;;17.80;99.90;;;;;;485750;244;29326;-70
2022/08/27 01:30:24;;;;;;;9.33;8.33;;;17.80;99.90;;;;;;485714;244;29301;-69
2022/08/27 01:32:26;;;;;;;11.17;8.20;;;17.80;99.90;;;;;;485749;244;29323;-69
2022/08/27 01:34:27;;;;;;;8.10;7.30;;;17.80;99.90;;;;;;485729;244;28897;-73
2022/08/27 01:36:28;;;;;;;9.00;8.10;;;17.80;99.90;;;;;;485678;244;28944;-69
2022/08/27 01:38:30;;;;;;;7.80;7.10;;;17.80;99.90;;;;;;485760;244;28851;-70
2022/08/27 01:40:31;;;;;;;8.87;8.07;;;17.80;99.90;;;;;;485740;244;28812;-69
2022/08/27 01:42:32;;;;;;;7.80;7.20;;;17.80;99.90;;;;;;485732;244;28851;-70
2022/08/27 01:44:33;;;;;;;8.23;7.43;;;17.80;99.90;;;;;;485723;244;28950;-71
2022/08/27 01:46:35;;;;;;;7.57;6.87;;;17.80;99.90;;;;;;485675;244;28833;-69
2022/08/27 01:48:36;;;;;;;8.33;7.53;;;17.80;99.90;;;;;;485732;244;28858;-69
2022/08/27 01:50:37;;;;;;;8.50;7.70;;;17.80;99.90;;;;;;485628;244;29435;-69
2022/08/27 01:52:38;;;;;;;8.60;7.80;;;17.80;99.90;;;;;;485714;244;29386;-69
2022/08/27 01:54:39;;;;;;;9.27;8.37;;;17.80;99.90;;;;;;485712;244;29349;-73
2022/08/27 01:56:41;;;;;;;8.47;7.70;;;17.80;99.90;;;;;;485586;244;29272;-70
2022/08/27 01:58:43;;;;;;;8.30;7.50;;;17.80;99.90;;;;;;485721;244;28854;-70
2022/08/27 02:00:43;;;;;;;8.10;7.40;;;17.80;99.90;;;;;;485704;244;28928;-70
2022/08/27 02:02:44;;;;;;;8.77;7.97;;;17.70;99.90;;;;;;485746;244;28915;-69
2022/08/27 02:04:46;;;;;;;8.47;7.57;;;17.60;99.90;;;;;;485767;244;28863;-72
2022/08/27 02:06:47;;;;;;;8.83;7.93;;;17.50;99.90;;;;;;485594;244;28872;-69
2022/08/27 02:08:48;;;;;;;8.00;7.30;;;17.50;99.90;;;;;;485684;244;28890;-70
2022/08/27 02:10:49;;;;;;;8.70;7.90;;;17.50;99.90;;;;;;485717;244;28956;-69
2022/08/27 02:12:51;;;;;;;8.63;7.73;;;17.60;99.90;;;;;;485621;244;29373;-69
2022/08/27 02:14:52;;;;;;;8.60;7.80;;;17.60;99.90;;;;;;485626;244;28855;-72
2022/08/27 02:16:53;;;;;;;8.83;7.93;;;17.60;99.90;;;;;;485339;244;29264;-69
2022/08/27 02:18:54;;;;;;;8.17;7.40;;;17.60;99.90;;;;;;485574;244;29333;-70
2022/08/27 02:20:56;;;;;;;8.23;7.50;;;17.60;99.90;;;;;;485671;244;29345;-69
2022/08/27 02:22:57;;;;;;;9.17;8.27;;;17.60;99.90;;;;;;485726;244;28947;-70
2022/08/27 02:24:58;;;;;;;8.30;7.60;;;17.60;99.90;;;;;;485736;244;28854;-72
2022/08/27 02:27:00;;;;;;;9.60;8.43;;;17.60;99.90;;;;;;485463;244;28837;-69
2022/08/27 02:29:01;;;;;;;8.57;7.77;;;17.50;99.90;;;;;;485653;244;28863;-69
2022/08/27 02:31:02;;;;;;;8.90;8.00;;;17.60;99.90;;;;;;485692;244;28877;-69
2022/08/27 02:33:04;;;;;;;8.10;7.40;;;17.60;99.90;;;;;;485721;244;28817;-70
2022/08/27 02:35:04;;;;;;;9.70;7.13;;;17.60;99.90;;;;;;485681;244;28867;-71
2022/08/27 02:37:06;;;;;;;7.87;7.13;;;17.70;99.90;;;;;;485658;244;28846;-69
2022/08/27 02:39:07;;;;;;;9.23;8.33;;;17.70;99.90;;;;;;485725;244;28916;-70
2022/08/27 02:41:08;;;;;;;8.47;7.60;;;17.70;99.90;;;;;;485735;244;29394;-69
2022/08/27 02:43:09;;;;;;;8.60;7.80;;;17.70;99.90;;;;;;485719;244;29386;-70
2022/08/27 02:45:11;;;;;;;8.33;7.53;;;17.60;99.90;;;;;;485733;244;29412;-72
2022/08/27 02:47:13;;;;;;;8.43;7.53;;;17.60;99.90;;;;;;485543;244;28950;-69
2022/08/27 02:49:14;;;;;;;10.90;8.67;;;17.60;99.90;;;;;;485710;244;28860;-69
2022/08/27 02:51:14;;;;;;;9.40;8.40;;;17.50;99.90;;;;;;485717;244;28948;-69
2022/08/27 02:53:16;;;;;;;9.30;8.43;;;17.50;99.90;;;;;;485722;244;28828;-69
2022/08/27 02:55:17;;;;;;;10.30;9.30;;;17.50;99.90;;;;;;485740;244;28874;-70
2022/08/27 02:57:18;;;;;;;11.73;10.40;;;17.50;99.90;;;;;;485588;244;28850;-69
2022/08/27 02:59:20;;;;;;;11.80;10.17;;;17.50;99.90;;;;;;485707;244;28909;-69
2022/08/27 03:01:21;;;;;;;9.97;8.83;;;17.50;99.90;;;;;;485745;244;29459;-73
2022/08/27 03:03:22;;;;;;;10.43;9.00;;;17.50;99.90;;;;;;485743;244;29263;-69
2022/08/27 03:05:23;;;;;;;10.30;9.30;;;17.50;99.90;;;;;;485737;244;29404;-70
2022/08/27 03:07:24;;;;;;;10.13;9.10;;;17.50;99.90;;;;;;485664;244;28907;-69
2022/08/27 03:09:26;;;;;;;10.67;9.43;;;17.50;99.90;;;;;;485723;244;28930;-69
2022/08/27 03:11:27;;;;;;;10.03;8.93;;;17.50;99.90;;;;;;485754;244;28865;-73
2022/08/27 03:13:28;;;;;;;9.67;8.80;;;17.50;99.90;;;;;;485748;244;28827;-69
2022/08/27 03:15:29;;;;;;;11.00;9.33;;;17.50;99.90;;;;;;485750;244;28870;-70
2022/08/27 03:19:50;;;;;;;11.60;10.40;;;17.50;99.90;;;;;;485735;245;29368;-69
2022/08/27 03:21:52;;;;;;;12.27;10.27;;;17.40;99.90;;;;;;485731;244;29364;-71
2022/08/27 03:23:53;;;;;;;11.00;9.50;;;17.40;99.90;;;;;;485720;244;28928;-69
2022/08/27 03:25:54;;;;;;;10.93;9.70;;;17.50;99.90;;;;;;485709;244;28854;-70
2022/08/27 03:27:55;;;;;;;11.07;9.97;;;17.40;99.90;;;;;;485682;244;29216;-72
2022/08/27 03:29:57;;;;;;;11.03;9.93;;;17.40;99.90;;;;;;485721;244;28814;-70
2022/08/27 03:31:58;;;;;;;10.83;9.73;;;17.40;99.90;;;;;;485736;244;28957;-70
2022/08/27 03:33:59;;;;;;;12.47;10.43;;;17.40;99.90;;;;;;485719;244;28820;-69
2022/08/27 03:36:00;;;;;;;15.70;12.30;;;17.40;99.90;;;;;;485721;244;29325;-69
2022/08/27 03:38:02;;;;;;;12.40;11.10;;;17.40;99.90;;;;;;485707;244;29400;-69
2022/08/27 03:40:03;;;;;;;12.97;11.63;;;17.40;99.90;;;;;;485766;244;28817;-69
2022/08/27 03:42:04;;;;;;;12.37;11.07;;;17.30;99.90;;;;;;485760;244;28971;-71
2022/08/27 03:44:05;;;;;;;10.93;9.80;;;17.40;99.90;;;;;;485754;244;28898;-69
2022/08/27 03:46:07;;;;;;;11.33;10.13;;;17.40;99.90;;;;;;485436;244;28949;-72
2022/08/27 03:48:08;;;;;;;11.50;10.30;;;17.40;99.90;;;;;;485709;244;28894;-72
2022/08/27 03:50:10;;;;;;;10.67;9.47;;;17.30;99.90;;;;;;485645;244;29267;-70
2022/08/27 03:52:10;;;;;;;9.37;8.47;;;17.40;99.90;;;;;;485667;244;29458;-70
2022/08/27 03:54:12;;;;;;;10.47;9.47;;;17.40;99.90;;;;;;485685;244;29405;-69
2022/08/27 03:56:13;;;;;;;9.77;8.80;;;17.30;99.90;;;;;;485638;244;28991;-70
2022/08/27 03:58:14;;;;;;;9.33;8.03;;;17.40;99.90;;;;;;485724;244;28874;-72
2022/08/27 04:00:15;;;;;;;9.60;8.70;;;17.40;99.90;;;;;;485698;244;28839;-69
2022/08/27 04:02:17;;;;;;;9.10;8.23;;;17.40;99.90;;;;;;485703;244;28887;-70
2022/08/27 04:04:18;;;;;;;8.73;7.93;;;17.40;99.90;;;;;;485740;244;28974;-69
2022/08/27 04:06:19;;;;;;;8.00;7.23;;;17.40;99.90;;;;;;485700;244;28863;-70
2022/08/27 04:08:21;;;;;;;10.10;8.10;;;17.40;99.90;;;;;;485754;244;29208;-72
2022/08/27 04:10:22;;;;;;;8.80;8.07;;;17.30;99.90;;;;;;485712;244;28828;-69
2022/08/27 04:12:23;;;;;;;7.97;7.17;;;17.30;99.90;;;;;;485729;244;29320;-70
2022/08/27 04:14:24;;;;;;;8.40;7.63;;;17.30;99.90;;;;;;485735;245;29310;-70
2022/08/27 04:16:26;;;;;;;7.67;6.93;;;17.40;99.90;;;;;;485695;244;29477;-69
2022/08/27 04:18:27;;;;;;;6.97;6.37;;;17.40;99.90;;;;;;485756;244;28873;-71
2022/08/27 04:20:28;;;;;;;7.33;6.63;;;17.40;99.90;;;;;;485705;242;28861;-69
2022/08/27 04:22:29;;;;;;;6.33;5.83;;;17.40;99.90;;;;;;485738;244;28879;-70
2022/08/27 04:24:30;;;;;;;6.60;6.10;;;17.40;99.90;;;;;;485741;244;28818;-69
2022/08/27 04:26:32;;;;;;;7.07;6.47;;;17.40;99.90;;;;;;485647;244;28856;-69
2022/08/27 04:28:33;;;;;;;7.70;7.00;;;17.40;99.90;;;;;;485757;244;28985;-72
2022/08/27 04:30:34;;;;;;;6.50;5.90;;;17.40;99.90;;;;;;485765;244;28834;-69
2022/08/27 04:32:35;;;;;;;8.33;6.70;;;17.30;99.90;;;;;;485760;244;28870;-70
2022/08/27 04:34:37;;;;;;;7.97;7.27;;;17.30;99.90;;;;;;485748;244;28836;-69
2022/08/27 04:36:38;;;;;;;7.30;6.63;;;17.30;99.90;;;;;;485647;244;29354;-69
2022/08/27 04:38:39;;;;;;;6.43;5.93;;;17.30;99.90;;;;;;485703;244;29475;-73
2022/08/27 04:43:00;;;;;;;6.53;6.03;;;17.30;99.90;;;;;;485765;245;29349;-69
2022/08/27 04:45:01;;;;;;;6.83;6.23;;;17.30;99.90;;;;;;485774;244;29349;-71
2022/08/27 04:47:03;;;;;;;8.33;7.53;;;17.30;99.90;;;;;;485669;244;28925;-69
2022/08/27 04:49:04;;;;;;;6.93;6.33;;;17.30;99.90;;;;;;485761;244;28854;-70
2022/08/27 04:51:05;;;;;;;7.10;6.50;;;17.20;99.90;;;;;;485768;244;28823;-69
2022/08/27 04:53:07;;;;;;;6.43;5.93;;;17.30;99.90;;;;;;485735;244;28856;-69
2022/08/27 04:55:08;;;;;;;7.60;6.90;;;17.30;99.90;;;;;;485737;244;28934;-72
2022/08/27 04:57:09;;;;;;;7.10;6.50;;;17.30;99.90;;;;;;485699;244;28812;-70
2022/08/27 04:59:10;;;;;;;8.40;7.60;;;17.30;99.90;;;;;;485756;244;28865;-70
2022/08/27 05:01:11;;;;;;;7.70;7.00;;;17.20;99.90;;;;;;485751;244;28920;-69
2022/08/27 05:03:14;;;;;;;7.53;6.93;;;17.20;99.90;;;;;;485738;244;28855;-70
2022/08/27 05:05:14;;;;;;;6.90;6.30;;;17.10;99.90;;;;;;485682;245;29453;-72
2022/08/27 05:07:15;;;;;;;7.17;6.50;;;17.20;99.90;;;;;;485700;244;29290;-69
2022/08/27 05:09:16;;;;;;;6.83;6.23;;;17.30;99.90;;;;;;485739;244;29321;-69
2022/08/27 05:11:18;;;;;;;6.40;5.80;;;17.30;99.90;;;;;;485734;244;29357;-69
2022/08/27 05:13:19;;;;;;;5.83;5.40;;;17.40;99.90;;;;;;485709;244;28848;-69
2022/08/27 05:15:20;;;;;;;6.60;6.10;;;17.40;99.90;;;;;;485651;244;28961;-69
2022/08/27 05:17:21;;;;;;;5.23;4.83;;;17.40;99.90;;;;;;484899;244;28865;-69
2022/08/27 05:19:23;;;;;;;5.80;5.30;;;17.40;99.90;;;;;;485404;244;28961;-70
2022/08/27 05:21:24;;;;;;;5.23;4.77;;;17.40;99.90;;;;;;485745;244;28928;-69
2022/08/27 05:23:26;;;;;;;5.17;4.77;;;17.40;99.90;;;;;;485719;244;28965;-69
2022/08/27 05:25:26;;;;;;;5.70;5.20;;;17.40;99.90;;;;;;485557;245;28850;-71
2022/08/27 05:27:28;;;;;;;5.43;5.00;;;17.40;99.90;;;;;;485684;244;28903;-69
2022/08/27 05:29:30;;;;;;;5.50;5.03;;;17.40;99.90;;;;;;485734;244;28872;-70
2022/08/27 05:31:30;;;;;;;4.70;4.37;;;17.30;99.90;;;;;;485720;245;29292;-69
2022/08/27 05:33:31;;;;;;;5.57;5.07;;;17.20;99.90;;;;;;485699;244;29285;-70
2022/08/27 05:35:33;;;;;;;4.77;4.37;;;17.20;99.90;;;;;;485734;244;29339;-71
2022/08/27 05:37:34;;;;;;;5.00;4.60;;;17.20;99.90;;;;;;485665;244;28809;-69
2022/08/27 05:39:35;;;;;;;4.90;4.50;;;17.20;99.90;;;;;;485720;244;28926;-70
2022/08/27 05:41:36;;;;;;;5.00;4.60;;;17.20;99.90;;;;;;485740;244;28904;-69
2022/08/27 05:43:38;;;;;;;5.20;4.70;;;17.20;99.90;;;;;;485721;244;28942;-70
2022/08/27 05:45:39;;;;;;;4.07;3.73;;;17.20;99.90;;;;;;485710;244;28965;-71
2022/08/27 05:47:40;;;;;;;5.10;4.60;;;17.20;99.90;;;;;;485679;244;28833;-70
2022/08/27 05:49:41;;;;;;;4.40;4.10;;;17.20;99.90;;;;;;485737;244;28870;-71
2022/08/27 05:51:43;;;;;;;5.13;4.73;;;17.20;99.90;;;;;;485752;244;28830;-69
2022/08/27 05:53:44;;;;;;;4.40;4.00;;;17.20;99.90;;;;;;485722;244;28932;-70
2022/08/27 05:55:45;;;;;;;4.83;4.43;;;17.10;99.90;;;;;;485728;245;29416;-72
2022/08/27 05:57:46;;;;;;;4.77;4.37;;;17.10;99.90;;;;;;485666;244;29298;-69
2022/08/27 06:02:07;;;;;;;4.97;4.57;;;17.20;99.90;;;;;;485747;245;29365;-73
2022/08/27 06:04:09;;;;;;;4.00;3.70;;;17.20;99.90;;;;;;485736;244;29488;-69
2022/08/27 06:06:10;;;;;;;4.33;4.03;;;17.20;99.90;;;;;;485657;244;28861;-70
2022/08/27 06:08:11;;;;;;;4.80;4.37;;;17.30;99.90;;;;;;485734;244;28819;-69
2022/08/27 06:10:13;;;;;;;4.70;4.30;;;17.30;99.90;;;;;;485711;244;28845;-69
2022/08/27 06:12:14;;;;;;;5.00;4.60;;;17.30;99.90;;;;;;485748;244;28816;-71
2022/08/27 06:14:15;;;;;;;5.60;5.10;;;17.20;99.90;;;;;;485697;244;28915;-69
2022/08/27 06:16:16;;;;;;;5.40;4.90;;;17.20;99.90;;;;;;485642;244;28861;-70
2022/08/27 06:18:17;;;;;;;4.70;4.30;;;17.30;99.90;;;;;;485745;244;28899;-70
2022/08/27 06:20:19;;;;;;;5.00;3.90;;;17.40;99.90;;;;;;485722;244;28966;-70
2022/08/27 06:22:20;;;;;;;4.60;4.20;;;17.50;99.90;;;;;;485713;244;28844;-71
2022/08/27 06:24:21;;;;;;;5.90;5.30;;;17.50;99.90;;;;;;485718;244;29283;-69
2022/08/27 06:26:22;;;;;;;6.23;5.53;;;17.40;99.90;;;;;;485674;244;29416;-69
2022/08/27 06:28:24;;;;;;;6.33;5.27;;;17.30;99.90;;;;;;485745;244;31211;-73
2022/08/27 06:30:25;;;;;;;5.07;4.67;;;17.30;99.90;;;;;;485731;244;28819;-69
2022/08/27 06:32:26;;;;;;;4.40;4.00;;;17.40;99.90;;;;;;485751;244;28849;-70
2022/08/27 06:34:27;;;;;;;4.30;4.00;;;17.50;99.90;;;;;;485751;244;28915;-69
2022/08/27 06:36:29;;;;;;;4.63;4.30;;;17.70;99.90;;;;;;485661;244;28958;-69
2022/08/27 06:38:30;;;;;;;4.80;4.40;;;17.50;99.90;;;;;;485745;244;28866;-69
2022/08/27 06:40:31;;;;;;;4.07;3.60;;;17.60;99.90;;;;;;485752;244;28961;-69
2022/08/27 06:42:33;;;;;;;4.30;4.00;;;17.80;99.90;;;;;;485766;244;28866;-70
2022/08/27 06:44:34;;;;;;;3.90;3.60;;;17.80;99.90;;;;;;485754;244;28950;-69
2022/08/27 06:46:35;;;;;;;4.83;4.40;;;17.90;99.90;;;;;;485676;244;28956;-69
2022/08/27 06:48:36;;;;;;;4.60;4.20;;;17.80;99.90;;;;;;485737;244;29339;-73
2022/08/27 06:50:37;;;;;;;4.60;4.17;;;17.90;99.90;;;;;;485405;244;29700;-69
2022/08/27 06:52:39;;;;;;;4.47;4.17;;;18.00;99.90;;;;;;486747;244;29306;-70
2022/08/27 06:54:40;;;;;;;6.27;4.90;;;18.10;99.90;;;;;;467589;253;29287;-69
2022/08/27 06:56:41;;;;;;;4.67;4.27;;;18.00;99.90;;;;;;468649;253;28777;-70
2022/08/27 06:58:42;;;;;;;4.80;4.40;;;18.10;99.90;;;;;;475538;250;28777;-72
2022/08/27 07:00:44;;;;;;;4.43;4.13;;;18.40;99.90;;;;;;475574;249;28783;-70
2022/08/27 07:02:45;;;;;;;4.07;3.77;;;18.40;99.90;;;;;;475569;250;28806;-71
2022/08/27 07:04:46;;;;;;;4.13;3.83;;;18.40;99.90;;;;;;475571;249;28873;-69
2022/08/27 07:06:47;;;;;;;3.87;3.57;;;18.40;99.90;;;;;;475506;249;28814;-70
2022/08/27 07:08:49;;;;;;;4.67;4.33;;;18.40;99.90;;;;;;475538;249;29158;-70
2022/08/27 07:10:50;;;;;;;4.37;4.07;;;18.40;99.90;;;;;;475585;249;28893;-69
2022/08/27 07:12:51;;;;;;;4.63;4.23;;;18.40;99.90;;;;;;475567;249;29302;-71
2022/08/27 07:14:52;;;;;;;6.40;5.50;;;18.50;99.90;;;;;;475574;249;29349;-69
2022/08/27 07:16:54;;;;;;;5.07;4.57;;;18.50;99.90;;;;;;475546;249;29330;-70
2022/08/27 07:18:55;;;;;;;8.40;5.70;;;18.60;99.90;;;;;;475590;249;29333;-69
2022/08/27 07:20:56;;;;;;;6.57;5.97;;;18.50;99.90;;;;;;475600;249;28958;-69
2022/08/27 07:22:58;;;;;;;6.80;6.10;;;18.40;99.90;;;;;;475596;249;28899;-70
2022/08/27 07:24:59;;;;;;;7.37;6.27;;;18.50;99.90;;;;;;475575;249;28971;-69
2022/08/27 07:27:00;;;;;;;9.30;7.03;;;18.60;99.90;;;;;;475487;249;28907;-69
2022/08/27 07:29:01;;;;;;;5.60;5.10;;;18.40;99.90;;;;;;475536;249;28888;-69
2022/08/27 07:31:02;;;;;;;5.20;4.70;;;18.50;99.90;;;;;;475597;249;28876;-69
2022/08/27 07:33:04;;;;;;;4.93;4.53;;;18.80;99.90;;;;;;475590;249;28894;-71
2022/08/27 07:35:08;;;;;;;5.50;5.00;;;19.00;99.90;;;;;;475594;249;28942;-69
2022/08/27 07:37:06;;;;;;;4.80;4.40;;;19.10;99.90;;;;;;475348;249;28866;-70
2022/08/27 07:39:08;;;;;;;5.67;5.17;;;19.30;99.90;;;;;;475597;249;30129;-69
2022/08/27 07:41:09;;;;;;;5.37;4.87;;;19.10;99.90;;;;;;475588;249;29484;-69
2022/08/27 07:45:29;;;;;;;5.33;4.93;;;19.00;99.90;;;;;;475581;249;29337;-69
2022/08/27 07:47:31;;;;;;;6.10;5.50;;;19.10;99.90;;;;;;475509;249;29388;-70
2022/08/27 07:49:34;;;;;;;5.47;4.97;;;19.00;99.90;;;;;;475599;249;28893;-72
2022/08/27 07:51:36;;;;;;;6.50;5.90;;;19.00;99.90;;;;;;475525;249;28869;-69
2022/08/27 07:53:34;;;;;;;8.03;5.80;;;18.90;99.90;;;;;;475064;249;28860;-70
2022/08/27 07:55:36;;;;;;;6.17;5.57;;;18.90;99.90;;;;;;475611;249;28867;-70
2022/08/27 07:57:37;;;;;;;6.03;5.43;;;19.00;99.90;;;;;;475561;249;28899;-70
2022/08/27 07:59:38;;;;;;;5.70;5.17;;;19.00;99.90;;;;;;475609;249;28966;-71
2022/08/27 08:01:41;;;;;;;5.77;5.27;;;19.00;99.90;;;;;;475634;249;28866;-69
2022/08/27 08:03:41;;;;;;;5.50;5.00;;;19.10;99.90;;;;;;475297;249;28926;-70
2022/08/27 08:05:42;;;;;;;6.77;5.83;;;18.90;99.90;;;;;;475419;249;29306;-70
2022/08/27 08:07:43;;;;;;;6.60;5.97;;;18.80;99.90;;;;;;475530;249;29283;-70
2022/08/27 08:09:44;;;;;;;6.90;6.30;;;18.80;99.90;;;;;;475623;249;29469;-73
2022/08/27 08:11:46;;;;;;;5.80;5.30;;;18.90;99.90;;;;;;475605;249;29339;-69
2022/08/27 08:13:47;;;;;;;6.93;6.33;;;19.00;99.90;;;;;;475620;250;28980;-69
2022/08/27 08:15:48;;;;;;;6.73;6.03;;;19.10;99.90;;;;;;475518;250;29477;-70
2022/08/27 08:17:50;;;;;;;6.43;5.80;;;19.20;99.90;;;;;;475543;249;28874;-70
2022/08/27 08:19:52;;;;;;;5.77;5.27;;;19.30;99.90;;;;;;475599;249;28911;-71
2022/08/27 08:21:52;;;;;;;6.43;5.83;;;19.30;99.90;;;;;;475530;249;28867;-69
2022/08/27 08:23:53;;;;;;;6.17;5.60;;;19.40;99.90;;;;;;475602;249;28943;-70
2022/08/27 08:25:56;;;;;;;7.47;6.70;;;19.40;99.90;;;;;;475603;250;30694;-70
2022/08/27 08:27:56;;;;;;;7.13;6.43;;;19.40;99.90;;;;;;475504;249;29377;-71
2022/08/27 08:29:57;;;;;;;7.23;6.10;;;19.30;99.90;;;;;;475592;249;29354;-72
2022/08/27 08:31:58;;;;;;;8.80;6.70;;;19.40;99.90;;;;;;475600;249;29468;-69
2022/08/27 08:34:00;;;;;;;9.50;7.47;;;19.40;99.90;;;;;;475584;249;28868;-69
2022/08/27 08:36:01;;;;;;;10.63;9.53;;;19.30;99.90;;;;;;475566;249;28904;-78
2022/08/27 08:38:02;;;;;;;11.03;8.70;;;19.10;99.90;;;;;;475535;249;28863;-70
2022/08/27 08:40:03;;;;;;;11.70;9.47;;;19.10;99.90;;;;;;475623;249;28942;-70
2022/08/27 08:42:05;;;;;;;10.87;9.77;;;19.10;99.90;;;;;;475613;249;28874;-69
2022/08/27 08:44:07;;;;;;;9.20;8.17;;;18.90;99.90;;;;;;475580;249;28892;-69
2022/08/27 08:46:08;;;;;;;8.13;7.30;;;19.00;99.90;;;;;;475484;249;28920;-75
2022/08/27 08:48:08;;;;;;;8.47;7.57;;;19.30;99.90;;;;;;475561;249;29410;-69
2022/08/27 08:50:10;;;;;;;7.67;6.93;;;19.40;99.90;;;;;;475594;250;29335;-70
2022/08/27 08:52:11;;;;;;;9.60;6.60;;;19.40;99.90;;;;;;475617;249;29363;-69
2022/08/27 08:54:12;;;;;;;8.33;7.53;;;19.50;99.90;;;;;;475590;249;29419;-70
2022/08/27 08:56:13;;;;;;;8.37;7.13;;;19.50;99.90;;;;;;475562;249;28971;-74
2022/08/27 08:58:15;;;;;;;9.73;8.73;;;19.40;99.90;;;;;;475607;249;28944;-70
2022/08/27 09:00:16;;;;;;;9.30;8.33;;;19.20;99.90;;;;;;475606;249;28917;-68
2022/08/27 09:02:17;;;;;;;10.10;7.60;;;19.20;99.90;;;;;;475174;249;29251;-70
2022/08/27 09:04:18;;;;;;;9.17;8.20;;;19.20;99.90;;;;;;475530;249;28916;-70
2022/08/27 09:06:20;;;;;;;10.97;9.20;;;19.10;99.90;;;;;;475530;249;28904;-72
2022/08/27 09:08:21;;;;;;;12.00;9.30;;;19.00;99.90;;;;;;475573;249;28870;-69
2022/08/27 09:10:22;;;;;;;13.83;9.20;;;18.90;99.90;;;;;;475390;249;29467;-70
2022/08/27 09:12:23;;;;;;;10.17;9.10;;;18.90;99.90;;;;;;475579;249;29335;-70
2022/08/27 09:14:25;;;;;;;11.17;7.60;;;19.10;99.90;;;;;;475568;249;29442;-69
2022/08/27 09:16:26;;;;;;;10.80;8.77;;;19.30;99.90;;;;;;475524;250;28839;-73
2022/08/27 09:18:27;;;;;;;9.07;8.17;;;19.40;99.90;;;;;;475531;249;28847;-70
2022/08/27 09:20:28;;;;;;;12.83;8.00;;;19.40;99.90;;;;;;475571;249;28809;-71
2022/08/27 09:22:30;;;;;;;8.23;7.37;;;19.40;99.90;;;;;;475595;249;28847;-70
2022/08/27 09:24:31;;;;;;;9.20;7.20;;;19.30;99.90;;;;;;475580;249;28912;-70
2022/08/27 09:26:32;;;;;;;8.83;7.93;;;19.30;99.90;;;;;;475524;249;29144;-73
2022/08/27 09:30:54;;;;;;;10.57;7.90;;;19.20;99.90;;;;;;475588;249;27497;-70
2022/08/27 09:32:55;;;;;;;13.27;8.43;;;19.10;99.90;;;;;;475560;249;28807;-73
2022/08/27 09:34:56;;;;;;;10.13;8.37;;;19.10;99.90;;;;;;475607;249;29450;-69
2022/08/27 09:36:58;;;;;;;9.43;8.17;;;19.00;99.90;;;;;;475388;250;29368;-71
2022/08/27 09:39:01;;;;;;;11.90;8.73;;;19.00;99.90;;;;;;474975;249;28926;-69
2022/08/27 09:40:59;;;;;;;9.87;8.87;;;19.00;99.90;;;;;;475470;249;28811;-69
2022/08/27 09:43:01;;;;;;;9.50;8.50;;;19.00;99.90;;;;;;475599;249;29286;-72
2022/08/27 09:45:02;;;;;;;13.43;11.40;;;19.10;99.90;;;;;;475427;249;28865;-70
2022/08/27 09:47:03;;;;;;;21.30;13.27;;;18.90;99.90;;;;;;475551;249;29368;-71
2022/08/27 09:49:04;;;;;;;14.37;12.30;;;19.00;99.90;;;;;;475594;249;29428;-69
2022/08/27 09:51:06;;;;;;;15.93;11.63;;;19.10;99.90;;;;;;475582;249;28904;-69
2022/08/27 09:53:07;;;;;;;12.40;11.10;;;19.40;99.90;;;;;;475578;249;28798;-72
2022/08/27 09:55:08;;;;;;;11.47;8.77;;;19.60;99.90;;;;;;475566;249;28861;-70
2022/08/27 09:57:10;;;;;;;9.30;8.07;;;19.80;99.90;;;;;;475524;249;28827;-70
2022/08/27 09:59:11;;;;;;;12.30;9.60;;;20.10;99.90;;;;;;475569;249;28772;-70
2022/08/27 10:01:12;;;;;;;9.80;8.90;;;20.10;99.90;;;;;;475486;249;28823;-70
2022/08/27 10:03:13;;;;;;;11.10;8.80;;;20.30;99.90;;;;;;475573;249;28920;-71
2022/08/27 10:05:15;;;;;;;9.30;8.13;;;20.40;99.90;;;;;;475567;249;28768;-69
2022/08/27 10:07:16;;;;;;;9.23;8.30;;;20.50;99.90;;;;;;475515;250;28801;-70
2022/08/27 10:09:17;;;;;;;11.53;9.10;;;20.40;99.90;;;;;;475571;249;28801;-70
2022/08/27 10:11:18;;;;;;;8.50;7.50;;;20.40;99.90;;;;;;475559;249;29354;-70
2022/08/27 10:13:20;;;;;;;9.87;8.53;;;20.40;99.90;;;;;;475580;249;29472;-71
2022/08/27 10:15:21;;;;;;;9.43;8.20;;;20.30;99.90;;;;;;475594;249;29442;-70
2022/08/27 10:17:22;;;;;;;8.60;7.60;;;20.50;99.90;;;;;;475515;249;29284;-70
2022/08/27 10:19:24;;;;;;;11.40;9.20;;;20.60;99.90;;;;;;475579;249;28785;-70
2022/08/27 10:21:25;;;;;;;9.40;8.40;;;20.60;99.90;;;;;;475564;249;28814;-69
2022/08/27 10:23:26;;;;;;;9.33;8.33;;;20.60;99.90;;;;;;475561;249;28820;-70
2022/08/27 10:25:27;;;;;;;9.50;7.77;;;20.60;99.90;;;;;;475574;250;28774;-69
2022/08/27 10:27:28;;;;;;;9.63;8.40;;;20.80;99.90;;;;;;475528;249;28815;-70
2022/08/27 10:29:30;;;;;;;9.80;8.80;;;20.90;99.90;;;;;;475566;249;29370;-75
2022/08/27 10:31:31;;;;;;;9.47;7.40;;;21.00;99.90;;;;;;475568;249;29220;-70
2022/08/27 10:33:32;;;;;;;10.00;8.13;;;21.00;99.90;;;;;;475557;249;29296;-70
2022/08/27 10:35:34;;;;;;;9.10;8.20;;;21.10;99.90;;;;;;475587;249;28841;-70
2022/08/27 10:37:35;;;;;;;9.20;8.20;;;21.20;99.90;;;;;;475517;249;28845;-70
2022/08/27 10:39:36;;;;;;;9.20;8.20;;;21.20;99.90;;;;;;475574;249;28920;-73
2022/08/27 10:41:37;;;;;;;12.33;8.90;;;21.20;99.90;;;;;;475562;249;28870;-70
2022/08/27 10:43:39;;;;;;;11.20;7.60;;;21.30;99.90;;;;;;475517;249;28893;-71